createdAt,value
2022-11-24T00:01:53.955Z,10.00
2022-11-24T00:04:24.500Z,11.77
2022-11-24T00:06:53.575Z,10.03
2022-11-24T00:09:22.278Z,12.50
2022-11-24T00:11:50.932Z,10.90
2022-11-24T00:14:20.171Z,10.23
2022-11-24T00:16:50.306Z,10.97
2022-11-24T00:19:19.888Z,11.10
2022-11-24T00:21:48.735Z,8.90
2022-11-24T00:24:17.557Z,10.63
2022-11-24T00:26:46.319Z,10.00
2022-11-24T00:29:15.035Z,11.23
2022-11-24T00:31:46.504Z,9.90
2022-11-24T00:34:16.739Z,10.73
2022-11-24T00:36:45.419Z,10.00
2022-11-24T00:39:15.872Z,10.43
2022-11-24T00:41:44.596Z,11.40
2022-11-24T00:44:13.184Z,9.97
2022-11-24T00:46:41.961Z,9.73
2022-11-24T00:49:10.931Z,9.03
2022-11-24T00:51:41.016Z,9.73
2022-11-24T00:54:10.897Z,9.37
2022-11-24T00:56:39.513Z,11.03
2022-11-24T00:59:08.301Z,9.27
2022-11-24T01:01:37.543Z,9.03
2022-11-24T01:04:06.855Z,10.00
2022-11-24T01:06:37.126Z,9.70
2022-11-24T01:09:07.761Z,8.20
2022-11-24T01:11:51.340Z,9.47
2022-11-24T01:14:21.073Z,9.73
2022-11-24T01:16:49.932Z,8.67
2022-11-24T01:19:18.873Z,9.00
2022-11-24T01:21:47.950Z,9.20
2022-11-24T01:24:17.892Z,9.30
2022-11-24T01:26:46.675Z,9.87
2022-11-24T01:29:15.277Z,8.70
2022-11-24T01:31:44.973Z,8.80
2022-11-24T01:34:15.283Z,8.97
2022-11-24T01:36:43.963Z,9.70
2022-11-24T01:39:13.420Z,9.60
2022-11-24T01:41:43.497Z,9.10
2022-11-24T01:44:23.510Z,9.63
2022-11-24T01:46:55.868Z,9.33
2022-11-24T01:49:29.059Z,10.03
2022-11-24T01:52:05.025Z,8.80
2022-11-24T01:54:37.478Z,9.57
2022-11-24T01:57:13.976Z,8.57
2022-11-24T01:59:42.774Z,10.67
2022-11-24T02:02:12.529Z,7.97
2022-11-24T02:04:42.951Z,9.20
2022-11-24T02:07:14.005Z,9.20
2022-11-24T02:09:47.918Z,8.53
2022-11-24T02:12:17.921Z,8.83
2022-11-24T02:14:47.379Z,8.70
2022-11-24T02:17:16.022Z,8.80
2022-11-24T02:19:55.509Z,8.47
2022-11-24T02:22:32.602Z,8.50
2022-11-24T02:25:07.975Z,8.67
2022-11-24T02:27:38.073Z,10.40
2022-11-24T02:30:07.745Z,8.47
2022-11-24T02:32:37.138Z,8.83
2022-11-24T02:35:08.638Z,10.40
2022-11-24T02:37:37.741Z,9.00
2022-11-24T02:40:07.709Z,9.37
2022-11-24T02:42:42.569Z,9.00
2022-11-24T02:45:12.988Z,9.20
2022-11-24T02:47:41.587Z,8.90
2022-11-24T02:50:10.665Z,9.50
2022-11-24T02:52:39.227Z,9.63
2022-11-24T02:55:08.468Z,7.93
2022-11-24T02:57:39.074Z,10.23
2022-11-24T03:00:09.501Z,9.83
2022-11-24T03:02:38.332Z,8.33
2022-11-24T03:05:15.117Z,8.10
2022-11-24T03:07:43.833Z,9.93
2022-11-24T03:10:12.490Z,9.10
2022-11-24T03:12:42.543Z,8.83
2022-11-24T03:15:12.124Z,8.80
2022-11-24T03:17:40.696Z,10.20
2022-11-24T03:20:10.921Z,9.23
2022-11-24T03:22:39.631Z,8.37
2022-11-24T03:25:08.541Z,8.60
2022-11-24T03:27:37.701Z,9.07
2022-11-24T03:30:09.459Z,9.13
2022-11-24T03:32:38.047Z,9.10
2022-11-24T03:35:07.762Z,9.37
2022-11-24T03:37:37.341Z,9.47
2022-11-24T03:40:07.540Z,7.90
2022-11-24T03:42:36.291Z,8.97
2022-11-24T03:45:44.761Z,9.00
2022-11-24T03:47:58.716Z,8.80
2022-11-24T03:50:27.376Z,8.73
2022-11-24T03:52:55.977Z,9.17
2022-11-24T03:55:24.663Z,8.30
2022-11-24T03:57:53.210Z,10.13
2022-11-24T04:00:21.942Z,9.00
2022-11-24T04:02:50.738Z,9.77
2022-11-24T04:05:20.801Z,8.67
2022-11-24T04:07:49.412Z,10.23
2022-11-24T04:10:18.192Z,9.33
2022-11-24T04:12:50.165Z,9.00
2022-11-24T04:15:20.958Z,8.50
2022-11-24T04:17:50.929Z,8.97
2022-11-24T04:20:21.198Z,8.43
2022-11-24T04:22:51.773Z,9.33
2022-11-24T04:25:20.607Z,9.53
2022-11-24T04:27:53.074Z,9.60
2022-11-24T04:30:22.886Z,9.67
2022-11-24T04:32:51.914Z,9.77
2022-11-24T04:35:22.369Z,8.13
2022-11-24T04:37:50.994Z,9.40
2022-11-24T04:40:19.875Z,9.13
2022-11-24T04:42:55.376Z,9.37
2022-11-24T04:45:24.475Z,9.57
2022-11-24T04:47:55.041Z,8.50
2022-11-24T04:50:25.132Z,11.13
2022-11-24T04:52:56.633Z,9.67
2022-11-24T04:55:25.375Z,10.33
2022-11-24T04:57:54.133Z,9.63
2022-11-24T05:00:22.970Z,9.73
2022-11-24T05:02:51.640Z,11.07
2022-11-24T05:05:20.307Z,9.80
2022-11-24T05:07:50.430Z,9.03
2022-11-24T05:10:37.539Z,9.63
2022-11-24T05:13:08.522Z,8.80
2022-11-24T05:15:39.034Z,9.20
2022-11-24T05:18:15.862Z,9.30
2022-11-24T05:20:45.800Z,8.70
2022-11-24T05:23:15.881Z,9.37
2022-11-24T05:25:47.635Z,9.23
2022-11-24T05:28:16.789Z,10.53
2022-11-24T05:30:46.248Z,9.47
2022-11-24T05:33:19.274Z,9.40
2022-11-24T05:35:49.079Z,9.80
2022-11-24T05:38:19.699Z,11.00
2022-11-24T05:40:52.141Z,9.33
2022-11-24T05:43:20.792Z,9.43
2022-11-24T05:45:49.436Z,11.10
2022-11-24T05:48:18.259Z,9.30
2022-11-24T05:50:53.603Z,9.80
2022-11-24T05:53:24.070Z,10.03
2022-11-24T05:55:52.719Z,9.67
2022-11-24T05:58:21.380Z,10.27
2022-11-24T06:00:50.045Z,10.60
2022-11-24T06:03:18.794Z,9.20
2022-11-24T06:05:48.321Z,9.77
2022-11-24T06:08:30.712Z,9.43
2022-11-24T06:11:17.228Z,9.43
2022-11-24T06:13:46.992Z,10.47
2022-11-24T06:16:16.179Z,8.87
2022-11-24T06:18:44.837Z,10.87
2022-11-24T06:21:13.653Z,9.53
2022-11-24T06:23:44.046Z,10.37
2022-11-24T06:26:12.661Z,9.37
2022-11-24T06:28:41.717Z,9.83
2022-11-24T06:31:11.348Z,10.47
2022-11-24T06:33:40.354Z,10.27
2022-11-24T06:36:13.081Z,9.13
2022-11-24T06:38:43.111Z,10.77
2022-11-24T06:41:14.550Z,10.87
2022-11-24T06:43:43.447Z,9.23
2022-11-24T06:46:12.579Z,8.87
2022-11-24T06:48:41.133Z,9.33
2022-11-24T06:51:12.778Z,8.97
2022-11-24T06:53:43.367Z,8.57
2022-11-24T06:56:16.537Z,8.00
2022-11-24T06:58:47.527Z,9.50
2022-11-24T07:01:17.109Z,8.37
2022-11-24T07:03:45.787Z,9.13
2022-11-24T07:06:14.329Z,9.57
2022-11-24T07:08:44.508Z,11.23
2022-11-24T07:11:15.685Z,10.87
2022-11-24T07:13:44.956Z,10.63
2022-11-24T07:16:15.292Z,9.53
2022-11-24T07:18:44.155Z,10.23
2022-11-24T07:21:13.378Z,8.93
2022-11-24T07:23:43.678Z,9.33
2022-11-24T07:26:12.369Z,8.83
2022-11-24T07:28:40.917Z,9.47
2022-11-24T07:31:10.615Z,8.60
2022-11-24T07:33:39.348Z,9.77
2022-11-24T07:36:09.964Z,7.50
2022-11-24T07:38:38.552Z,8.93
2022-11-24T07:41:12.653Z,9.40
2022-11-24T07:43:41.720Z,9.47
2022-11-24T07:46:15.615Z,8.93
2022-11-24T07:48:44.490Z,9.33
2022-11-24T07:51:13.458Z,10.80
2022-11-24T07:53:42.341Z,10.83
2022-11-24T07:56:12.629Z,9.90
2022-11-24T07:58:41.252Z,10.60
2022-11-24T08:01:14.570Z,11.67
2022-11-24T08:03:44.052Z,10.80
2022-11-24T08:06:36.302Z,12.10
2022-11-24T08:09:02.347Z,11.17
2022-11-24T08:11:32.995Z,10.73
2022-11-24T08:14:01.607Z,11.00
2022-11-24T08:16:30.289Z,11.33
2022-11-24T08:18:58.997Z,11.50
2022-11-24T08:21:27.771Z,10.77
2022-11-24T08:23:57.176Z,11.03
2022-11-24T08:26:26.576Z,13.60
2022-11-24T08:28:58.170Z,11.73
2022-11-24T08:31:33.463Z,13.13
2022-11-24T08:34:03.653Z,11.40
2022-11-24T08:36:32.955Z,13.13
2022-11-24T08:39:02.136Z,12.70
2022-11-24T08:41:31.390Z,10.63
2022-11-24T08:44:01.680Z,12.50
2022-11-24T08:46:30.332Z,11.57
2022-11-24T08:48:58.960Z,13.10
2022-11-24T08:51:28.328Z,12.17
2022-11-24T08:53:58.352Z,11.97
2022-11-24T08:56:28.289Z,10.87
2022-11-24T08:58:57.680Z,12.07
2022-11-24T09:01:29.340Z,13.63
2022-11-24T09:03:58.048Z,11.20
2022-11-24T09:06:30.893Z,12.80
2022-11-24T09:09:00.530Z,11.63
2022-11-24T09:11:29.559Z,12.53
2022-11-24T09:13:58.280Z,12.60
2022-11-24T09:16:29.980Z,11.60
2022-11-24T09:19:00.275Z,11.60
2022-11-24T09:21:29.588Z,11.97
2022-11-24T09:23:58.574Z,13.50
2022-11-24T09:26:28.900Z,12.47
2022-11-24T09:28:58.748Z,10.97
2022-11-24T09:31:31.078Z,11.63
2022-11-24T09:33:59.752Z,12.17
2022-11-24T09:36:28.558Z,13.77
2022-11-24T09:38:57.350Z,12.13
2022-11-24T09:41:47.318Z,11.77
2022-11-24T09:44:39.666Z,12.40
2022-11-24T09:47:17.951Z,14.80
2022-11-24T09:49:52.111Z,12.13
2022-11-24T09:52:27.852Z,12.73
2022-11-24T09:55:01.526Z,12.37
2022-11-24T09:57:37.041Z,12.00
2022-11-24T10:00:13.979Z,12.67
2022-11-24T10:02:44.824Z,12.30
2022-11-24T10:05:14.249Z,12.83
2022-11-24T10:07:49.768Z,11.70
2022-11-24T10:10:25.104Z,14.07
2022-11-24T10:13:06.067Z,11.57
2022-11-24T10:15:49.069Z,12.00
2022-11-24T10:18:38.599Z,12.63
2022-11-24T10:21:23.709Z,12.17
2022-11-24T10:24:06.415Z,12.10
2022-11-24T10:26:38.505Z,12.17
2022-11-24T10:29:19.497Z,10.67
2022-11-24T10:31:53.318Z,12.93
2022-11-24T10:34:28.792Z,11.73
2022-11-24T10:37:03.082Z,12.20
2022-11-24T10:39:38.026Z,12.37
2022-11-24T10:42:15.292Z,11.20
2022-11-24T10:44:44.542Z,11.43
2022-11-24T10:47:20.671Z,12.27
2022-11-24T10:49:56.640Z,12.13
2022-11-24T10:52:26.327Z,11.73
2022-11-24T10:54:57.018Z,11.37
2022-11-24T10:57:30.674Z,11.30
2022-11-24T10:59:59.865Z,12.63
2022-11-24T11:02:35.062Z,10.70
2022-11-24T11:05:28.534Z,11.80
2022-11-24T11:08:23.214Z,11.77
2022-11-24T11:11:12.971Z,12.77
2022-11-24T11:13:52.207Z,11.10
2022-11-24T11:16:27.344Z,11.73
2022-11-24T11:18:55.973Z,11.83
2022-11-24T11:21:34.941Z,12.23
2022-11-24T11:24:06.269Z,10.60
2022-11-24T11:26:38.519Z,10.47
2022-11-24T11:35:13.317Z,10.23
2022-11-24T11:37:44.552Z,11.07
2022-11-24T11:40:17.839Z,10.40
2022-11-24T11:43:06.011Z,11.47
2022-11-24T11:45:37.271Z,11.13
2022-11-24T11:48:23.171Z,9.97
2022-11-24T11:53:51.226Z,11.13
2022-11-24T11:56:26.030Z,11.63
2022-11-24T11:59:32.933Z,12.03
2022-11-24T12:02:19.966Z,11.73
2022-11-24T12:04:54.008Z,12.30
2022-11-24T12:07:38.155Z,11.03
2022-11-24T12:10:16.629Z,10.50
2022-11-24T12:13:04.202Z,11.80
2022-11-24T12:15:39.679Z,11.80
2022-11-24T12:18:40.658Z,10.70
2022-11-24T12:21:22.876Z,10.43
2022-11-24T12:24:07.336Z,11.47
2022-11-24T12:26:44.992Z,11.27
2022-11-24T12:29:56.520Z,11.87
2022-11-24T12:32:39.885Z,11.00
2022-11-24T12:35:20.439Z,11.13
2022-11-24T12:37:59.228Z,12.90
2022-11-24T12:40:46.844Z,11.07
2022-11-24T12:43:26.146Z,12.53
2022-11-24T12:46:00.272Z,12.37
2022-11-24T12:48:53.578Z,11.67
2022-11-24T12:51:27.477Z,11.67
2022-11-24T12:53:58.874Z,11.87
2022-11-24T12:56:32.692Z,12.03
2022-11-24T12:59:16.111Z,14.50
2022-11-24T13:01:50.965Z,13.13
2022-11-24T13:04:33.009Z,12.13
2022-11-24T13:07:07.250Z,12.67
2022-11-24T13:09:36.356Z,10.97
2022-11-24T13:12:13.364Z,13.07
2022-11-24T13:14:46.237Z,11.77
2022-11-24T13:17:47.614Z,12.20
2022-11-24T13:20:26.716Z,13.30
2022-11-24T13:22:56.741Z,12.37
2022-11-24T13:25:28.758Z,11.63
2022-11-24T13:27:59.768Z,12.40
2022-11-24T13:31:10.826Z,12.93
2022-11-24T13:33:40.786Z,11.53
2022-11-24T13:36:31.681Z,12.20
2022-11-24T13:39:01.127Z,10.40
2022-11-24T13:42:44.088Z,11.97
2022-11-24T13:45:01.841Z,12.77
2022-11-24T13:47:43.392Z,11.50
2022-11-24T13:50:23.581Z,12.63
2022-11-24T13:53:00.218Z,12.87
2022-11-24T13:55:33.578Z,11.40
2022-11-24T13:58:35.990Z,11.87
2022-11-24T14:01:19.052Z,12.27
2022-11-24T14:07:02.461Z,12.23
2022-11-24T14:09:40.855Z,11.57
2022-11-24T14:12:16.146Z,13.17
2022-11-24T14:14:46.261Z,12.47
2022-11-24T14:17:22.339Z,16.27
2022-11-24T14:19:53.754Z,11.57
2022-11-24T14:22:26.689Z,12.40
2022-11-24T14:24:57.253Z,13.00
2022-11-24T14:27:35.820Z,12.47
2022-11-24T14:30:19.630Z,11.53
2022-11-24T14:32:57.834Z,12.67
2022-11-24T14:35:30.450Z,11.63
2022-11-24T14:37:59.810Z,11.40
2022-11-24T14:40:43.196Z,11.40
2022-11-24T14:43:21.945Z,12.20
2022-11-24T14:45:52.445Z,12.13
2022-11-24T14:48:25.774Z,13.43
2022-11-24T14:51:06.713Z,11.97
2022-11-24T14:53:37.279Z,10.83
2022-11-24T14:56:11.053Z,11.73
2022-11-24T14:58:42.388Z,12.30
2022-11-24T15:01:21.116Z,12.67
2022-11-24T15:04:32.496Z,11.90
2022-11-24T15:07:15.075Z,10.30
2022-11-24T15:09:52.556Z,11.37
2022-11-24T15:12:28.815Z,11.10
2022-11-24T15:15:01.504Z,9.77
2022-11-24T15:17:31.361Z,10.03
2022-11-24T15:20:04.796Z,10.30
2022-11-24T15:22:40.740Z,11.57
2022-11-24T15:25:31.495Z,11.33
2022-11-24T15:28:00.479Z,10.13
2022-11-24T15:30:30.382Z,9.53
2022-11-24T15:33:00.465Z,9.73
2022-11-24T15:35:32.218Z,9.30
2022-11-24T15:38:02.260Z,9.77
2022-11-24T15:40:31.635Z,10.17
2022-11-24T15:43:06.138Z,10.63
2022-11-24T15:45:36.005Z,9.73
2022-11-24T15:48:06.175Z,9.50
2022-11-24T15:50:37.816Z,9.73
2022-11-24T15:53:12.663Z,8.77
2022-11-24T15:55:42.165Z,10.40
2022-11-24T15:58:13.897Z,10.97
2022-11-24T16:00:43.386Z,9.47
2022-11-24T16:03:45.230Z,10.43
2022-11-24T16:06:00.995Z,8.93
2022-11-24T16:08:30.954Z,8.13
2022-11-24T16:10:59.565Z,8.80
2022-11-24T16:13:28.192Z,10.90
2022-11-24T16:15:56.925Z,9.37
2022-11-24T16:18:25.534Z,10.03
2022-11-24T16:20:54.138Z,8.53
2022-11-24T16:23:22.780Z,10.50
2022-11-24T16:26:11.870Z,8.23
2022-11-24T16:29:38.567Z,9.60
2022-11-24T16:32:07.900Z,9.90
2022-11-24T16:34:37.194Z,8.33
2022-11-24T16:37:06.214Z,8.60
2022-11-24T16:39:34.859Z,8.73
2022-11-24T16:42:06.058Z,9.10
2022-11-24T16:44:35.092Z,10.60
2022-11-24T16:47:04.027Z,8.53
2022-11-24T16:49:32.608Z,9.47
2022-11-24T16:52:01.255Z,8.73
2022-11-24T16:54:29.840Z,8.80
2022-11-24T16:56:58.503Z,8.10
2022-11-24T16:59:28.421Z,7.83
2022-11-24T17:01:57.061Z,9.47
2022-11-24T17:04:25.694Z,8.40
2022-11-24T17:06:54.356Z,8.10
2022-11-24T17:09:22.998Z,9.20
2022-11-24T17:11:51.595Z,8.50
2022-11-24T17:14:20.232Z,9.30
2022-11-24T17:16:50.288Z,10.10
2022-11-24T17:19:19.084Z,9.80
2022-11-24T17:21:47.762Z,8.37
2022-11-24T17:24:17.709Z,10.60
2022-11-24T17:26:49.102Z,11.57
2022-11-24T17:29:17.963Z,10.53
2022-11-24T17:31:47.596Z,10.47
2022-11-24T17:34:17.600Z,9.47
2022-11-24T17:36:46.209Z,10.87
2022-11-24T17:39:14.850Z,10.53
2022-11-24T17:41:43.920Z,10.83
2022-11-24T17:44:12.804Z,11.37
2022-11-24T17:46:41.531Z,10.40
2022-11-24T17:49:13.318Z,10.43
2022-11-24T17:51:46.149Z,8.83
2022-11-24T17:57:03.442Z,9.07
2022-11-24T17:59:32.100Z,8.50
2022-11-24T18:02:00.695Z,7.60
2022-11-24T18:04:29.642Z,8.90
2022-11-24T18:06:59.550Z,8.17
2022-11-24T18:09:28.179Z,8.97
2022-11-24T18:11:56.826Z,8.50
2022-11-24T18:14:25.416Z,10.67
2022-11-24T18:16:54.163Z,9.37
2022-11-24T18:19:22.920Z,11.23
2022-11-24T18:21:51.488Z,9.60
2022-11-24T18:24:24.207Z,10.33
2022-11-24T18:26:53.266Z,8.73
2022-11-24T18:29:22.038Z,10.40
2022-11-24T18:31:50.779Z,9.27
2022-11-24T18:34:19.575Z,10.10
2022-11-24T18:36:52.113Z,9.40
2022-11-24T18:39:22.153Z,9.10
2022-11-24T18:41:50.756Z,8.10
2022-11-24T18:44:19.519Z,10.07
2022-11-24T18:46:49.503Z,9.57
2022-11-24T18:49:18.245Z,10.27
2022-11-24T18:51:46.825Z,9.23
2022-11-24T18:54:15.414Z,9.83
2022-11-24T18:56:45.712Z,7.73
2022-11-24T18:59:14.429Z,9.80
2022-11-24T19:01:43.235Z,10.03
2022-11-24T19:04:12.804Z,9.57
2022-11-24T19:06:41.502Z,7.87
2022-11-24T19:09:17.416Z,9.17
2022-11-24T19:11:48.655Z,8.80
2022-11-24T19:14:19.081Z,9.67
2022-11-24T19:16:48.816Z,8.53
2022-11-24T19:19:18.152Z,8.77
2022-11-24T19:21:46.965Z,8.40
2022-11-24T19:24:15.695Z,9.80
2022-11-24T19:26:44.542Z,10.83
2022-11-24T19:29:14.634Z,9.93
2022-11-24T19:31:44.098Z,10.80
2022-11-24T19:34:12.919Z,9.33
2022-11-24T19:36:43.275Z,8.60
2022-11-24T19:39:15.418Z,9.07
2022-11-24T19:41:44.105Z,8.70
2022-11-24T19:44:14.970Z,8.87
2022-11-24T19:46:43.648Z,8.83
2022-11-24T19:49:12.470Z,8.20
2022-11-24T19:51:41.192Z,8.60
2022-11-24T19:54:12.918Z,9.27
2022-11-24T19:56:42.125Z,7.87
2022-11-24T19:59:14.076Z,10.27
2022-11-24T20:01:44.270Z,8.13
2022-11-24T20:04:15.574Z,9.23
2022-11-24T20:06:47.081Z,10.07
2022-11-24T20:09:17.971Z,8.77
2022-11-24T20:11:48.614Z,8.70
2022-11-24T20:14:19.300Z,8.87
2022-11-24T20:16:49.611Z,10.23
2022-11-24T20:19:21.660Z,10.30
2022-11-24T20:21:51.871Z,8.37
2022-11-24T20:24:22.345Z,11.63
2022-11-24T20:26:53.081Z,9.17
2022-11-24T20:29:21.754Z,13.90
2022-11-24T20:31:53.205Z,9.17
2022-11-24T20:34:23.214Z,9.33
2022-11-24T20:36:52.977Z,8.10
2022-11-24T20:39:25.430Z,9.87
2022-11-24T20:41:54.902Z,10.67
2022-11-24T20:44:25.013Z,9.50
2022-11-24T20:46:56.733Z,8.97
2022-11-24T20:49:25.817Z,8.10
2022-11-24T20:51:57.232Z,8.53
2022-11-24T20:54:26.288Z,8.83
2022-11-24T20:56:55.264Z,9.13
2022-11-24T20:59:25.735Z,8.23
2022-11-24T21:01:56.286Z,8.77
2022-11-24T21:04:27.345Z,8.90
2022-11-24T21:06:55.995Z,8.13
2022-11-24T21:09:24.906Z,8.83
2022-11-24T21:11:54.730Z,8.47
2022-11-24T21:14:24.432Z,8.90
2022-11-24T21:16:53.123Z,9.27
2022-11-24T21:19:23.260Z,8.60
2022-11-24T21:21:51.941Z,9.70
2022-11-24T21:24:21.742Z,8.70
2022-11-24T21:26:52.826Z,8.30
2022-11-24T21:29:23.610Z,10.20
2022-11-24T21:31:52.992Z,8.50
2022-11-24T21:34:22.973Z,8.33
2022-11-24T21:36:51.600Z,8.17
2022-11-24T21:39:20.577Z,9.73
2022-11-24T21:41:49.258Z,9.37
2022-11-24T21:44:17.902Z,9.23
2022-11-24T21:46:52.734Z,9.53
2022-11-24T21:49:25.885Z,10.10
2022-11-24T21:51:55.976Z,8.90
2022-11-24T21:54:24.912Z,11.00
2022-11-24T21:56:54.791Z,8.57
2022-11-24T21:59:23.564Z,9.10
2022-11-24T22:01:52.281Z,9.70
2022-11-24T22:04:21.044Z,9.10
2022-11-24T22:06:51.062Z,8.93
2022-11-24T22:09:21.472Z,10.47
2022-11-24T22:11:52.109Z,8.90
2022-11-24T22:14:20.828Z,9.80
2022-11-24T22:16:49.533Z,10.33
2022-11-24T22:19:18.378Z,10.23
2022-11-24T22:21:46.967Z,8.57
2022-11-24T22:24:16.976Z,10.13
2022-11-24T22:26:45.643Z,10.00
2022-11-24T22:29:14.354Z,9.67
2022-11-24T22:31:43.273Z,9.23
2022-11-24T22:34:11.951Z,9.80
2022-11-24T22:36:40.610Z,9.20
2022-11-24T22:39:13.198Z,9.03
2022-11-24T22:41:43.294Z,9.33
2022-11-24T22:44:12.098Z,9.20
2022-11-24T22:46:40.741Z,8.93
2022-11-24T22:49:11.305Z,9.13
2022-11-24T22:51:40.619Z,9.07
2022-11-24T22:54:12.842Z,10.47
2022-11-24T22:56:42.819Z,9.60
2022-11-24T22:59:11.459Z,9.80
2022-11-24T23:01:40.127Z,8.57
2022-11-24T23:04:08.935Z,8.80
2022-11-24T23:06:38.094Z,10.37
2022-11-24T23:09:07.753Z,8.03
2022-11-24T23:11:39.155Z,8.43
2022-11-24T23:14:14.108Z,9.10
2022-11-24T23:16:43.569Z,9.10
2022-11-24T23:19:12.438Z,8.73
2022-11-24T23:21:41.198Z,8.43
2022-11-24T23:24:11.026Z,9.30
2022-11-24T23:26:41.559Z,9.87
2022-11-24T23:29:12.878Z,10.20
2022-11-24T23:31:41.556Z,8.33
2022-11-24T23:34:10.698Z,9.33
2022-11-24T23:36:39.717Z,9.00
2022-11-24T23:39:10.240Z,9.30
2022-11-24T23:41:38.948Z,9.23
2022-11-24T23:44:08.470Z,9.30
2022-11-24T23:46:38.405Z,9.83
2022-11-24T23:49:07.302Z,10.47
2022-11-24T23:51:36.177Z,8.90
2022-11-24T23:54:09.655Z,8.43
2022-11-24T23:56:38.389Z,8.53
2022-11-24T23:59:07.380Z,8.53
